createdAt,value
2022-11-01T00:00:19.575Z,4.47
2022-11-01T00:03:23.417Z,4.10
2022-11-01T00:06:26.894Z,3.95
2022-11-01T00:09:31.423Z,4.80
2022-11-01T00:12:34.384Z,4.32
2022-11-01T00:15:37.493Z,4.72
2022-11-01T00:18:40.507Z,4.10
2022-11-01T00:21:43.747Z,3.88
2022-11-01T00:24:47.982Z,3.87
2022-11-01T00:27:50.905Z,4.47
2022-11-01T00:30:54.520Z,4.25
2022-11-01T00:33:57.514Z,4.40
2022-11-01T00:37:00.615Z,4.20
2022-11-01T00:40:05.547Z,4.47
2022-11-01T00:43:08.574Z,3.47
2022-11-01T00:46:11.768Z,4.03
2022-11-01T00:49:14.699Z,4.72
2022-11-01T00:52:18.406Z,4.13
2022-11-01T00:55:22.804Z,4.18
2022-11-01T00:58:25.811Z,4.75
2022-11-01T01:01:28.888Z,5.47
2022-11-01T01:04:32.004Z,5.13
2022-11-01T01:07:35.225Z,5.18
2022-11-01T01:10:39.686Z,5.43
2022-11-01T01:13:42.793Z,6.32
2022-11-01T01:16:45.725Z,6.30
2022-11-01T01:19:48.690Z,6.05
2022-11-01T01:22:51.795Z,6.47
2022-11-01T01:25:56.087Z,5.80
2022-11-01T01:29:00.517Z,6.15
2022-11-01T01:32:03.551Z,6.28
2022-11-01T01:35:08.261Z,7.20
2022-11-01T01:38:11.525Z,8.35
2022-11-01T01:41:33.447Z,7.93
2022-11-01T01:45:22.650Z,7.53
2022-11-01T01:48:28.523Z,7.88
2022-11-01T01:51:31.608Z,9.18
2022-11-01T01:54:34.597Z,9.75
2022-11-01T01:57:41.552Z,9.95
2022-11-01T02:00:45.934Z,10.32
2022-11-01T02:03:50.085Z,9.25
2022-11-01T02:06:53.265Z,9.35
2022-11-01T02:09:57.976Z,7.95
2022-11-01T02:13:02.571Z,9.27
2022-11-01T02:16:44.853Z,9.30
2022-11-01T02:20:19.263Z,8.82
2022-11-01T02:24:20.470Z,9.02
2022-11-01T02:27:33.822Z,9.77
2022-11-01T02:30:47.659Z,8.98
2022-11-01T02:33:59.839Z,8.32
2022-11-01T02:37:20.708Z,7.95
2022-11-01T02:40:34.207Z,8.98
2022-11-01T02:43:46.550Z,9.23
2022-11-01T02:47:02.156Z,8.38
2022-11-01T02:50:11.721Z,8.52
2022-11-01T02:53:14.908Z,8.77
2022-11-01T02:56:19.946Z,9.80
2022-11-01T02:59:27.296Z,9.15
2022-11-01T03:02:40.942Z,9.50
2022-11-01T03:06:02.723Z,9.00
2022-11-01T03:09:11.663Z,9.25
2022-11-01T03:12:25.602Z,9.10
2022-11-01T03:15:39.938Z,9.00
2022-11-01T03:22:07.679Z,10.05
2022-11-01T03:25:35.614Z,9.23
2022-11-01T03:28:43.727Z,8.95
2022-11-01T03:31:49.451Z,9.98
2022-11-01T03:34:52.647Z,9.27
2022-11-01T03:38:02.112Z,8.32
2022-11-01T03:41:10.084Z,8.80
2022-11-01T03:44:15.158Z,8.02
2022-11-01T03:47:18.259Z,9.10
2022-11-01T03:50:24.115Z,9.20
2022-11-01T03:53:28.514Z,10.35
2022-11-01T03:56:31.655Z,9.30
2022-11-01T03:59:34.724Z,8.65
2022-11-01T04:02:37.601Z,10.20
2022-11-01T04:05:42.646Z,9.10
2022-11-01T04:08:46.965Z,10.35
2022-11-01T04:11:50.135Z,9.85
2022-11-01T04:15:10.923Z,9.55
2022-11-01T04:18:35.429Z,10.20
2022-11-01T04:21:39.234Z,10.43
2022-11-01T04:24:43.523Z,10.10
2022-11-01T04:27:46.431Z,8.32
2022-11-01T04:30:49.475Z,11.10
2022-11-01T04:33:52.611Z,10.48
2022-11-01T04:36:56.554Z,10.13
2022-11-01T04:40:00.893Z,9.30
2022-11-01T04:43:03.957Z,9.38
2022-11-01T04:46:07.336Z,8.77
2022-11-01T04:49:10.439Z,8.97
2022-11-01T04:52:13.491Z,9.60
2022-11-01T04:55:18.046Z,8.93
2022-11-01T04:58:21.069Z,9.45
2022-11-01T05:01:24.107Z,9.30
2022-11-01T05:04:27.329Z,8.57
2022-11-01T05:07:30.299Z,8.30
2022-11-01T05:10:36.493Z,8.18
2022-11-01T05:13:39.696Z,8.05
2022-11-01T05:16:42.669Z,8.43
2022-11-01T05:19:45.621Z,9.00
2022-11-01T05:22:48.971Z,8.57
2022-11-01T05:25:53.813Z,8.23
2022-11-01T05:28:56.769Z,7.35
2022-11-01T05:31:59.710Z,7.75
2022-11-01T05:35:04.556Z,7.13
2022-11-01T05:38:07.697Z,7.70
2022-11-01T05:44:19.929Z,7.97
2022-11-01T05:47:22.886Z,7.95
2022-11-01T05:50:25.827Z,8.30
2022-11-01T05:53:28.905Z,8.52
2022-11-01T05:56:33.406Z,8.10
2022-11-01T05:59:36.542Z,7.03
2022-11-01T06:02:39.812Z,7.28
2022-11-01T06:05:43.107Z,7.03
2022-11-01T06:08:46.112Z,7.47
2022-11-01T06:11:50.717Z,6.72
2022-11-01T06:14:53.862Z,7.00
2022-11-01T06:17:58.219Z,6.50
2022-11-01T06:21:01.262Z,6.70
2022-11-01T06:24:04.511Z,7.10
2022-11-01T06:27:12.503Z,7.13
2022-11-01T06:30:16.223Z,7.15
2022-11-01T06:33:19.311Z,8.60
2022-11-01T06:36:22.717Z,8.65
2022-11-01T06:39:25.741Z,8.80
2022-11-01T06:42:30.529Z,7.72
2022-11-01T06:45:34.297Z,7.68
2022-11-01T06:48:37.264Z,8.63
2022-11-01T06:51:40.328Z,7.60
2022-11-01T06:54:43.328Z,7.93
2022-11-01T06:57:57.287Z,8.73
2022-11-01T07:01:02.915Z,9.68
2022-11-01T07:04:06.354Z,9.73
2022-11-01T07:07:09.449Z,9.90
2022-11-01T07:10:12.466Z,11.27
2022-11-01T07:13:16.767Z,11.07
2022-11-01T07:16:19.764Z,11.23
2022-11-01T07:19:23.611Z,9.57
2022-11-01T07:22:26.525Z,10.05
2022-11-01T07:25:30.865Z,11.32
2022-11-01T07:28:35.333Z,10.95
2022-11-01T07:31:38.880Z,10.25
2022-11-01T07:34:41.844Z,9.52
2022-11-01T07:37:44.840Z,11.32
2022-11-01T07:40:49.711Z,9.77
2022-11-01T07:43:54.512Z,10.13
2022-11-01T07:46:57.507Z,9.73
2022-11-01T07:50:00.574Z,10.20
2022-11-01T07:53:05.994Z,10.77
2022-11-01T07:56:09.162Z,11.00
2022-11-01T07:59:13.581Z,9.53
2022-11-01T08:02:16.687Z,10.63
2022-11-01T08:05:19.830Z,10.13
2022-11-01T08:08:23.064Z,9.48
2022-11-01T08:11:26.008Z,10.37
2022-11-01T08:14:30.338Z,10.15
2022-11-01T08:17:34.886Z,9.73
2022-11-01T08:20:38.081Z,10.10
2022-11-01T08:23:42.675Z,9.70
2022-11-01T08:26:45.834Z,9.23
2022-11-01T08:29:50.124Z,9.15
2022-11-01T08:33:00.492Z,10.60
2022-11-01T08:36:03.930Z,9.63
2022-11-01T08:39:07.008Z,10.07
2022-11-01T08:42:10.795Z,10.07
2022-11-01T08:45:15.582Z,9.82
2022-11-01T08:48:18.643Z,9.63
2022-11-01T08:51:25.693Z,10.55
2022-11-01T08:54:28.671Z,11.02
2022-11-01T08:57:32.049Z,9.95
2022-11-01T09:00:36.758Z,9.93
2022-11-01T09:03:39.610Z,11.02
2022-11-01T09:06:42.643Z,10.05
2022-11-01T09:09:46.493Z,9.75
2022-11-01T09:12:49.535Z,11.20
2022-11-01T09:15:57.254Z,9.45
2022-11-01T09:19:04.457Z,9.45
2022-11-01T09:22:08.657Z,11.52
2022-11-01T09:25:12.525Z,10.82
2022-11-01T09:28:15.750Z,10.65
2022-11-01T09:31:21.309Z,11.57
2022-11-01T09:34:24.640Z,12.68
2022-11-01T09:37:27.614Z,12.35
2022-11-01T09:40:39.073Z,12.15
2022-11-01T09:43:45.037Z,12.73
2022-11-01T09:46:56.731Z,11.02
2022-11-01T09:50:13.564Z,11.13
2022-11-01T09:53:23.121Z,12.48
2022-11-01T09:56:36.195Z,13.13
2022-11-01T09:59:51.784Z,12.25
2022-11-01T10:03:20.789Z,12.35
2022-11-01T10:06:28.816Z,12.18
2022-11-01T10:09:44.987Z,11.38
2022-11-01T10:13:08.281Z,11.05
2022-11-01T10:16:24.153Z,10.57
2022-11-01T10:19:35.245Z,10.15
2022-11-01T10:22:40.461Z,11.15
2022-11-01T10:25:52.903Z,12.30
2022-11-01T10:29:08.792Z,10.70
2022-11-01T10:32:26.375Z,10.57
2022-11-01T10:35:36.294Z,11.00
2022-11-01T10:42:11.041Z,11.40
2022-11-01T10:45:19.357Z,12.80
2022-11-01T10:48:31.546Z,13.57
2022-11-01T10:51:36.869Z,12.57
2022-11-01T10:54:44.823Z,12.77
2022-11-01T10:57:56.290Z,13.73
2022-11-01T11:00:59.912Z,14.43
2022-11-01T11:04:07.680Z,14.43
2022-11-01T11:07:18.602Z,15.52
2022-11-01T11:10:27.734Z,15.13
2022-11-01T11:13:32.586Z,17.02
2022-11-01T11:16:44.519Z,16.38
2022-11-01T11:19:48.964Z,18.20
2022-11-01T11:22:53.580Z,19.55
2022-11-01T11:26:04.228Z,18.55
2022-11-01T11:29:07.438Z,23.55
2022-11-01T11:32:19.073Z,21.00
2022-11-01T11:35:24.447Z,23.63
2022-11-01T11:38:47.652Z,23.08
2022-11-01T11:41:50.780Z,23.40
2022-11-01T11:44:57.169Z,23.55
2022-11-01T11:48:22.849Z,25.58
2022-11-01T11:51:29.648Z,23.23
2022-11-01T11:54:38.116Z,24.48
2022-11-01T11:57:41.201Z,23.80
2022-11-01T12:00:49.982Z,26.27
2022-11-01T12:03:58.483Z,23.25
2022-11-01T12:07:01.891Z,22.52
2022-11-01T12:10:29.815Z,21.60
2022-11-01T12:13:37.461Z,22.90
2022-11-01T12:16:42.647Z,22.23
2022-11-01T12:19:45.645Z,24.50
2022-11-01T12:23:07.438Z,22.52
2022-11-01T12:26:17.453Z,23.88
2022-11-01T12:29:33.426Z,23.60
2022-11-01T12:32:48.457Z,23.15
2022-11-01T12:35:55.286Z,22.00
2022-11-01T12:39:08.112Z,21.42
2022-11-01T12:42:20.851Z,20.90
2022-11-01T12:45:30.859Z,24.02
2022-11-01T12:48:41.243Z,24.17
2022-11-01T12:51:51.635Z,25.75
2022-11-01T12:55:05.093Z,23.55
2022-11-01T12:58:16.276Z,25.23
2022-11-01T13:01:37.998Z,24.42
2022-11-01T13:04:54.122Z,25.67
2022-11-01T13:08:13.810Z,24.13
2022-11-01T13:11:27.305Z,24.48
2022-11-01T13:14:49.602Z,24.07
2022-11-01T13:18:02.763Z,23.63
2022-11-01T13:21:15.678Z,26.00
2022-11-01T13:24:30.956Z,24.52
2022-11-01T13:27:41.745Z,23.75
2022-11-01T13:30:57.329Z,24.92
2022-11-01T13:34:24.782Z,23.52
2022-11-01T13:37:37.611Z,22.85
2022-11-01T13:40:54.906Z,21.95
2022-11-01T13:44:03.670Z,21.92
2022-11-01T13:47:43.452Z,22.50
2022-11-01T13:51:12.014Z,22.30
2022-11-01T13:54:26.296Z,20.67
2022-11-01T13:57:30.368Z,20.75
2022-11-01T14:03:49.706Z,17.23
2022-11-01T14:07:15.133Z,13.98
2022-11-01T14:10:47.869Z,12.20
2022-11-01T14:13:50.939Z,10.95
2022-11-01T14:16:54.804Z,9.63
2022-11-01T14:20:41.672Z,8.60
2022-11-01T14:23:52.241Z,8.00
2022-11-01T14:27:24.254Z,6.95
2022-11-01T14:30:34.919Z,6.20
2022-11-01T14:33:39.167Z,6.07
2022-11-01T14:36:46.328Z,6.20
2022-11-01T14:40:04.642Z,5.25
2022-11-01T14:43:20.462Z,5.65
2022-11-01T14:46:27.632Z,5.03
2022-11-01T14:49:40.389Z,4.43
2022-11-01T14:52:51.060Z,4.10
2022-11-01T14:56:08.405Z,3.00
2022-11-01T14:59:20.307Z,2.80
2022-11-01T15:02:25.482Z,2.30
2022-11-01T15:05:29.064Z,2.10
2022-11-01T15:08:42.544Z,2.05
2022-11-01T15:11:46.804Z,1.57
2022-11-01T15:14:51.701Z,1.92
2022-11-01T15:17:58.645Z,1.83
2022-11-01T15:21:02.965Z,2.42
2022-11-01T15:24:18.442Z,1.90
2022-11-01T15:27:24.383Z,1.60
2022-11-01T15:30:32.052Z,2.17
2022-11-01T15:33:35.519Z,1.60
2022-11-01T15:36:40.283Z,2.25
2022-11-01T15:39:44.761Z,1.92
2022-11-01T15:42:58.149Z,1.98
2022-11-01T15:46:03.494Z,1.85
2022-11-01T15:49:10.997Z,1.75
2022-11-01T15:52:21.109Z,1.52
2022-11-01T15:55:30.738Z,2.10
2022-11-01T15:58:39.325Z,2.50
2022-11-01T16:01:42.608Z,2.05
2022-11-01T16:04:47.906Z,2.17
2022-11-01T16:07:51.646Z,1.83
2022-11-01T16:10:56.714Z,1.83
2022-11-01T16:14:03.270Z,2.30
2022-11-01T16:17:09.747Z,2.70
2022-11-01T16:20:31.458Z,1.98
2022-11-01T16:23:35.657Z,2.17
2022-11-01T16:30:08.290Z,2.08
2022-11-01T16:33:24.166Z,2.65
2022-11-01T16:36:41.398Z,2.72
2022-11-01T16:39:45.030Z,2.67
2022-11-01T16:42:51.133Z,2.85
2022-11-01T16:45:54.565Z,2.10
2022-11-01T16:48:59.923Z,1.83
2022-11-01T16:52:02.916Z,2.50
2022-11-01T16:55:06.744Z,3.22
2022-11-01T16:58:18.613Z,2.70
2022-11-01T17:01:25.595Z,2.22
2022-11-01T17:04:29.596Z,2.38
2022-11-01T17:07:32.955Z,2.30
2022-11-01T17:10:36.031Z,2.20
2022-11-01T17:13:40.731Z,2.70
2022-11-01T17:16:47.248Z,2.80
2022-11-01T17:20:00.843Z,2.80
2022-11-01T17:23:04.137Z,2.78
2022-11-01T17:26:11.381Z,2.30
2022-11-01T17:29:15.832Z,2.15
2022-11-01T17:32:18.961Z,2.72
2022-11-01T17:35:24.372Z,3.08
2022-11-01T17:38:32.119Z,3.22
2022-11-01T17:41:35.160Z,3.10
2022-11-01T17:44:39.448Z,2.92
2022-11-01T17:47:42.450Z,3.70
2022-11-01T17:50:46.624Z,2.60
2022-11-01T17:56:57.079Z,2.65
2022-11-01T18:00:01.519Z,1.92
2022-11-01T18:03:04.961Z,2.88
2022-11-01T18:06:08.619Z,3.10
2022-11-01T18:09:22.710Z,3.20
2022-11-01T18:12:38.567Z,3.20
2022-11-01T18:15:48.547Z,3.00
2022-11-01T18:19:13.847Z,3.00
2022-11-01T18:22:32.514Z,3.47
2022-11-01T18:25:41.296Z,3.15
2022-11-01T18:28:45.058Z,3.03
2022-11-01T18:32:02.902Z,4.18
2022-11-01T18:35:16.309Z,4.05
2022-11-01T18:38:31.290Z,4.25
2022-11-01T18:41:34.402Z,4.18
2022-11-01T18:44:38.950Z,4.20
2022-11-01T18:47:53.173Z,4.13
2022-11-01T18:51:05.130Z,3.47
2022-11-01T18:54:26.985Z,4.03
2022-11-01T18:57:31.190Z,3.83
2022-11-01T19:03:39.020Z,4.28
2022-11-01T19:06:42.245Z,4.78
2022-11-01T19:09:54.237Z,4.60
2022-11-01T19:12:57.464Z,5.32
2022-11-01T19:16:02.950Z,4.03
2022-11-01T19:19:16.126Z,3.67
2022-11-01T19:22:39.747Z,4.55
2022-11-01T19:25:45.235Z,3.25
2022-11-01T19:28:51.832Z,3.08
2022-11-01T19:31:58.851Z,3.60
2022-11-01T19:35:03.394Z,2.53
2022-11-01T19:38:06.938Z,2.53
2022-11-01T19:41:15.956Z,3.55
2022-11-01T19:44:22.764Z,3.25
2022-11-01T19:47:40.458Z,3.50
2022-11-01T19:50:47.880Z,3.25
2022-11-01T19:53:52.424Z,3.08
2022-11-01T19:57:00.654Z,3.08
2022-11-01T20:00:29.092Z,3.42
2022-11-01T20:03:40.640Z,3.33
2022-11-01T20:06:50.574Z,2.88
2022-11-01T20:09:58.412Z,3.55
2022-11-01T20:13:02.492Z,3.20
2022-11-01T20:16:06.241Z,4.00
2022-11-01T20:19:13.136Z,3.17
2022-11-01T20:22:20.904Z,3.72
2022-11-01T20:25:24.783Z,3.60
2022-11-01T20:28:28.368Z,2.60
2022-11-01T20:31:32.328Z,2.80
2022-11-01T20:34:36.223Z,2.40
2022-11-01T20:37:41.091Z,2.53
2022-11-01T20:40:44.209Z,2.72
2022-11-01T20:43:47.297Z,2.47
2022-11-01T20:46:50.337Z,2.25
2022-11-01T20:49:53.739Z,2.47
2022-11-01T20:52:58.268Z,2.50
2022-11-01T20:56:01.596Z,2.92
2022-11-01T20:59:04.671Z,2.57
2022-11-01T21:02:11.039Z,2.63
2022-11-01T21:05:23.452Z,2.50
2022-11-01T21:08:33.524Z,3.05
2022-11-01T21:11:44.561Z,3.22
2022-11-01T21:14:47.846Z,3.20
2022-11-01T21:17:53.512Z,2.83
2022-11-01T21:20:58.888Z,2.00
2022-11-01T21:24:27.697Z,2.92
2022-11-01T21:27:31.260Z,1.88
2022-11-01T21:30:34.465Z,2.30
2022-11-01T21:33:39.718Z,2.30
2022-11-01T21:36:47.402Z,2.08
2022-11-01T21:40:03.187Z,2.40
2022-11-01T21:43:29.497Z,2.25
2022-11-01T21:46:38.435Z,2.33
2022-11-01T21:49:41.704Z,2.90
2022-11-01T21:52:44.715Z,2.20
2022-11-01T21:55:49.210Z,2.33
2022-11-01T21:58:52.173Z,2.00
2022-11-01T22:01:56.739Z,2.00
2022-11-01T22:04:59.943Z,2.40
2022-11-01T22:08:02.906Z,2.13
2022-11-01T22:11:08.068Z,2.42
2022-11-01T22:14:12.316Z,1.80
2022-11-01T22:20:18.273Z,1.67
2022-11-01T22:23:21.427Z,2.00
2022-11-01T22:26:26.543Z,2.67
2022-11-01T22:29:29.556Z,2.60
2022-11-01T22:32:32.498Z,2.25
2022-11-01T22:35:35.435Z,2.33
2022-11-01T22:38:41.342Z,2.05
2022-11-01T22:41:45.721Z,2.13
2022-11-01T22:44:51.247Z,2.47
2022-11-01T22:47:54.315Z,1.90
2022-11-01T22:50:57.627Z,2.20
2022-11-01T22:54:01.218Z,1.77
2022-11-01T22:57:16.687Z,2.08
2022-11-01T23:00:29.167Z,1.95
2022-11-01T23:03:37.454Z,2.10
2022-11-01T23:06:43.016Z,2.13
2022-11-01T23:09:46.351Z,1.75
2022-11-01T23:13:09.977Z,2.10
2022-11-01T23:16:25.542Z,1.52
2022-11-01T23:19:28.573Z,1.50
2022-11-01T23:22:35.637Z,1.88
2022-11-01T23:25:39.292Z,1.88
2022-11-01T23:28:47.284Z,1.63
2022-11-01T23:31:50.382Z,1.45
2022-11-01T23:35:03.785Z,1.92
2022-11-01T23:38:18.471Z,1.73
2022-11-01T23:41:24.835Z,1.60
2022-11-01T23:44:32.756Z,1.85
2022-11-01T23:47:41.594Z,1.85
2022-11-01T23:50:46.304Z,1.98
2022-11-01T23:53:54.849Z,2.00
2022-11-01T23:56:57.898Z,1.92
